createdAt,value
2022-07-31T00:00:27.079Z,101489.25
2022-07-31T00:02:53.752Z,101490.44
2022-07-31T00:05:20.390Z,101494.16
2022-07-31T00:07:47.041Z,101495.19
2022-07-31T00:10:13.697Z,101492.63
2022-07-31T00:12:40.656Z,101493.94
2022-07-31T00:15:10.265Z,101485.34
2022-07-31T00:17:40.550Z,101497.13
2022-07-31T00:20:08.071Z,101499.28
2022-07-31T00:22:35.668Z,101503.13
2022-07-31T00:25:02.425Z,101498.78
2022-07-31T00:27:29.200Z,101500.06
2022-07-31T00:29:55.851Z,101510.22
2022-07-31T00:32:22.481Z,101503.28
2022-07-31T00:34:49.128Z,101503.19
2022-07-31T00:37:15.899Z,101498.84
2022-07-31T00:39:42.952Z,101499.03
2022-07-31T00:42:24.091Z,101500.09
2022-07-31T00:44:51.640Z,101495.66
2022-07-31T00:47:20.027Z,101496.59
2022-07-31T00:49:52.260Z,101500.09
2022-07-31T00:52:19.120Z,101496.75
2022-07-31T00:54:45.823Z,101496.03
2022-07-31T00:57:12.426Z,101502.44
2022-07-31T00:59:39.042Z,101498.81
2022-07-31T01:02:05.699Z,101496.91
2022-07-31T01:04:32.307Z,101497.00
2022-07-31T01:07:01.465Z,101502.38
2022-07-31T01:09:28.432Z,101500.72
2022-07-31T01:12:03.596Z,101499.91
2022-07-31T01:14:35.640Z,101493.25
2022-07-31T01:17:06.195Z,101488.22
2022-07-31T01:19:42.724Z,101496.69
2022-07-31T01:22:44.077Z,101494.97
2022-07-31T01:25:48.573Z,101491.50
2022-07-31T01:28:42.939Z,101497.00
2022-07-31T01:31:29.145Z,101483.59
2022-07-31T01:34:05.603Z,101486.28
2022-07-31T01:36:35.052Z,101493.53
2022-07-31T01:39:02.911Z,101486.59
2022-07-31T01:41:34.364Z,101494.19
2022-07-31T01:44:05.472Z,101488.03
2022-07-31T01:46:37.512Z,101485.53
2022-07-31T01:49:11.143Z,101494.38
2022-07-31T01:51:39.996Z,101487.97
2022-07-31T01:54:07.703Z,101489.81
2022-07-31T01:56:36.471Z,101491.53
2022-07-31T01:59:04.684Z,101492.53
2022-07-31T02:01:44.659Z,101489.97
2022-07-31T02:04:14.427Z,101492.63
2022-07-31T02:06:42.489Z,101494.38
2022-07-31T02:09:09.478Z,101489.88
2022-07-31T02:11:53.241Z,101495.31
2022-07-31T02:14:24.754Z,101489.16
2022-07-31T02:16:51.463Z,101488.47
2022-07-31T02:19:20.072Z,101489.56
2022-07-31T02:21:46.781Z,101489.97
2022-07-31T02:24:13.628Z,101494.84
2022-07-31T02:26:40.658Z,101485.41
2022-07-31T02:29:19.532Z,101491.06
2022-07-31T02:32:03.594Z,101483.19
2022-07-31T02:34:31.921Z,101486.03
2022-07-31T02:37:00.937Z,101480.56
2022-07-31T02:39:30.636Z,101475.22
2022-07-31T02:42:01.713Z,101473.50
2022-07-31T02:44:31.859Z,101479.84
2022-07-31T02:47:02.615Z,101479.06
2022-07-31T02:49:30.968Z,101476.38
2022-07-31T02:51:58.593Z,101474.50
2022-07-31T02:54:26.072Z,101470.88
2022-07-31T02:56:53.723Z,101471.03
2022-07-31T02:59:22.162Z,101475.59
2022-07-31T03:01:48.846Z,101474.97
2022-07-31T03:04:15.789Z,101474.25
2022-07-31T03:06:43.508Z,101474.34
2022-07-31T03:09:10.229Z,101475.91
2022-07-31T03:11:36.951Z,101473.94
2022-07-31T03:14:05.461Z,101464.19
2022-07-31T03:16:32.753Z,101470.56
2022-07-31T03:19:00.904Z,101469.91
2022-07-31T03:21:28.399Z,101465.50
2022-07-31T03:23:55.496Z,101458.44
2022-07-31T03:26:22.284Z,101460.16
2022-07-31T03:28:48.897Z,101459.28
2022-07-31T03:31:15.601Z,101461.00
2022-07-31T03:33:42.816Z,101455.59
2022-07-31T03:36:12.888Z,101458.28
2022-07-31T03:38:41.356Z,101455.50
2022-07-31T03:41:10.600Z,101453.06
2022-07-31T03:43:44.246Z,101458.44
2022-07-31T03:46:17.266Z,101453.22
2022-07-31T03:48:44.651Z,101456.75
2022-07-31T03:51:11.629Z,101451.56
2022-07-31T03:53:38.915Z,101446.28
2022-07-31T03:56:07.037Z,101439.13
2022-07-31T03:58:34.151Z,101441.56
2022-07-31T04:01:04.622Z,101444.88
2022-07-31T04:03:34.969Z,101448.19
2022-07-31T04:06:01.604Z,101439.97
2022-07-31T04:08:28.218Z,101436.19
2022-07-31T04:10:54.848Z,101442.19
2022-07-31T04:13:21.443Z,101437.56
2022-07-31T04:15:48.420Z,101440.97
2022-07-31T04:18:15.006Z,101444.34
2022-07-31T04:20:41.630Z,101443.16
2022-07-31T04:23:08.243Z,101439.28
2022-07-31T04:25:36.259Z,101440.78
2022-07-31T04:28:02.846Z,101450.22
2022-07-31T04:30:29.535Z,101441.94
2022-07-31T04:32:59.274Z,101439.94
2022-07-31T04:35:25.900Z,101438.94
2022-07-31T04:37:52.601Z,101442.41
2022-07-31T04:40:19.200Z,101441.34
2022-07-31T04:42:45.804Z,101447.34
2022-07-31T04:45:12.493Z,101449.75
2022-07-31T04:47:39.152Z,101451.25
2022-07-31T04:50:06.335Z,101439.41
2022-07-31T04:52:32.963Z,101448.94
2022-07-31T04:54:59.548Z,101453.09
2022-07-31T04:57:26.478Z,101442.13
2022-07-31T05:00:00.302Z,101455.38
2022-07-31T05:02:28.391Z,101447.91
2022-07-31T05:04:57.111Z,101451.13
2022-07-31T05:07:26.663Z,101445.44
2022-07-31T05:09:56.460Z,101446.94
2022-07-31T05:12:23.156Z,101450.38
2022-07-31T05:14:49.867Z,101449.19
2022-07-31T05:17:16.839Z,101438.16
2022-07-31T05:19:43.481Z,101443.25
2022-07-31T05:22:11.616Z,101446.56
2022-07-31T05:24:38.288Z,101440.00
2022-07-31T05:27:05.604Z,101445.88
2022-07-31T05:29:33.262Z,101441.00
2022-07-31T05:32:01.181Z,101440.56
2022-07-31T05:34:31.228Z,101444.59
2022-07-31T05:37:01.522Z,101437.13
2022-07-31T05:39:29.118Z,101449.34
2022-07-31T05:41:55.826Z,101448.97
2022-07-31T05:44:22.598Z,101443.16
2022-07-31T05:49:15.768Z,101435.25
2022-07-31T05:51:46.889Z,101433.06
2022-07-31T05:54:13.805Z,101438.03
2022-07-31T05:56:40.436Z,101443.03
2022-07-31T05:59:07.092Z,101440.75
2022-07-31T06:01:33.778Z,101449.22
2022-07-31T06:04:00.545Z,101443.34
2022-07-31T06:06:27.127Z,101448.34
2022-07-31T06:08:53.840Z,101444.41
2022-07-31T06:11:20.971Z,101440.38
2022-07-31T06:13:47.594Z,101442.50
2022-07-31T06:16:15.242Z,101438.44
2022-07-31T06:18:42.574Z,101433.47
2022-07-31T06:21:09.844Z,101432.09
2022-07-31T06:23:36.678Z,101435.16
2022-07-31T06:26:03.902Z,101430.34
2022-07-31T06:28:43.239Z,101432.63
2022-07-31T06:31:22.627Z,101430.41
2022-07-31T06:33:50.157Z,101427.19
2022-07-31T06:36:18.707Z,101416.03
2022-07-31T06:38:46.154Z,101424.44
2022-07-31T06:41:32.915Z,101420.28
2022-07-31T06:43:59.551Z,101409.00
2022-07-31T06:46:26.144Z,101416.66
2022-07-31T06:48:52.785Z,101413.34
2022-07-31T06:51:35.015Z,101419.09
2022-07-31T06:54:03.157Z,101407.78
2022-07-31T06:56:30.756Z,101404.75
2022-07-31T06:58:57.602Z,101406.94
2022-07-31T07:01:24.399Z,101408.25
2022-07-31T07:03:51.200Z,101415.78
2022-07-31T07:06:18.188Z,101420.63
2022-07-31T07:08:44.936Z,101416.44
2022-07-31T07:11:12.515Z,101409.63
2022-07-31T07:13:44.953Z,101402.81
2022-07-31T07:16:14.465Z,101404.09
2022-07-31T07:18:41.144Z,101400.03
2022-07-31T07:21:07.735Z,101398.38
2022-07-31T07:23:35.621Z,101397.94
2022-07-31T07:26:02.391Z,101404.47
2022-07-31T07:28:29.297Z,101393.88
2022-07-31T07:30:57.863Z,101399.47
2022-07-31T07:33:40.923Z,101394.25
2022-07-31T07:36:22.759Z,101397.00
2022-07-31T07:38:54.136Z,101391.75
2022-07-31T07:41:23.469Z,101397.38
2022-07-31T07:43:52.265Z,101387.94
2022-07-31T07:46:20.233Z,101386.47
2022-07-31T07:48:46.913Z,101384.66
2022-07-31T07:51:13.778Z,101383.09
2022-07-31T07:53:40.593Z,101373.78
2022-07-31T07:56:07.252Z,101383.13
2022-07-31T07:58:33.863Z,101380.56
2022-07-31T08:01:01.728Z,101374.69
2022-07-31T08:03:51.199Z,101373.22
2022-07-31T08:06:15.019Z,101373.47
2022-07-31T08:08:41.606Z,101374.84
2022-07-31T08:11:08.256Z,101370.75
2022-07-31T08:13:34.920Z,101369.28
2022-07-31T08:16:01.864Z,101364.38
2022-07-31T08:18:28.701Z,101370.16
2022-07-31T08:20:55.513Z,101360.66
2022-07-31T08:23:22.171Z,101357.47
2022-07-31T08:25:48.818Z,101364.09
2022-07-31T08:28:19.559Z,101362.88
2022-07-31T08:30:50.684Z,101354.97
2022-07-31T08:33:17.346Z,101361.13
2022-07-31T08:35:47.456Z,101361.84
2022-07-31T08:38:20.655Z,101349.69
2022-07-31T08:40:47.399Z,101356.44
2022-07-31T08:44:01.926Z,101348.78
2022-07-31T08:46:04.858Z,101351.72
2022-07-31T08:48:33.376Z,101349.50
2022-07-31T08:51:03.603Z,101351.53
2022-07-31T08:53:31.220Z,101350.88
2022-07-31T08:55:58.098Z,101352.22
2022-07-31T08:58:24.947Z,101355.53
2022-07-31T09:00:53.386Z,101355.03
2022-07-31T09:03:20.128Z,101352.66
2022-07-31T09:05:46.760Z,101351.25
2022-07-31T09:08:14.981Z,101348.31
2022-07-31T09:10:46.370Z,101345.22
2022-07-31T09:13:18.674Z,101344.53
2022-07-31T09:15:45.661Z,101345.13
2022-07-31T09:18:22.287Z,101342.88
2022-07-31T09:21:04.134Z,101341.47
2022-07-31T09:23:32.183Z,101343.66
2022-07-31T09:26:06.108Z,101342.25
2022-07-31T09:28:38.208Z,101344.56
2022-07-31T09:31:07.417Z,101337.88
2022-07-31T09:33:36.663Z,101338.47
2022-07-31T09:36:04.181Z,101344.22
2022-07-31T09:38:42.286Z,101337.38
2022-07-31T09:41:56.011Z,101334.72
2022-07-31T09:44:09.532Z,101338.31
2022-07-31T09:46:46.461Z,101342.81
2022-07-31T09:49:13.774Z,101324.53
2022-07-31T09:51:45.552Z,101326.44
2022-07-31T09:54:22.872Z,101332.84
2022-07-31T09:56:50.504Z,101330.16
2022-07-31T09:59:17.531Z,101334.19
2022-07-31T10:01:48.885Z,101333.50
2022-07-31T10:04:21.303Z,101319.34
2022-07-31T10:06:50.352Z,101324.91
2022-07-31T10:09:19.657Z,101318.06
2022-07-31T10:11:48.565Z,101324.75
2022-07-31T10:14:31.050Z,101312.28
2022-07-31T10:17:01.157Z,101316.41
2022-07-31T10:19:34.995Z,101315.25
2022-07-31T10:22:04.580Z,101317.22
2022-07-31T10:24:33.457Z,101306.59
2022-07-31T10:27:03.901Z,101310.13
2022-07-31T10:29:39.337Z,101317.22
2022-07-31T10:32:07.127Z,101313.47
2022-07-31T10:34:35.044Z,101309.97
2022-07-31T10:37:18.546Z,101321.78
2022-07-31T10:39:47.793Z,101322.59
2022-07-31T10:42:55.825Z,101310.19
2022-07-31T10:45:23.908Z,101315.34
2022-07-31T10:47:55.630Z,101312.47
2022-07-31T10:50:24.677Z,101314.19
2022-07-31T10:52:51.453Z,101307.25
2022-07-31T10:55:22.402Z,101303.94
2022-07-31T10:57:57.271Z,101313.22
2022-07-31T11:00:28.515Z,101312.19
2022-07-31T11:02:57.120Z,101319.97
2022-07-31T11:05:26.029Z,101306.34
2022-07-31T11:08:04.975Z,101310.09
2022-07-31T11:10:31.981Z,101314.69
2022-07-31T11:13:05.044Z,101305.66
2022-07-31T11:15:37.582Z,101313.06
2022-07-31T11:18:24.912Z,101317.41
2022-07-31T11:21:13.705Z,101314.44
2022-07-31T11:23:55.935Z,101316.00
2022-07-31T11:26:33.335Z,101316.47
2022-07-31T11:29:57.713Z,101306.94
2022-07-31T11:31:55.697Z,101301.91
2022-07-31T11:34:22.447Z,101309.59
2022-07-31T11:36:51.536Z,101308.78
2022-07-31T11:39:18.581Z,101311.47
2022-07-31T11:41:47.427Z,101297.31
2022-07-31T11:44:20.939Z,101302.66
2022-07-31T11:46:51.043Z,101297.09
2022-07-31T11:49:47.756Z,101303.28
2022-07-31T11:52:31.320Z,101298.19
2022-07-31T11:55:13.471Z,101301.28
2022-07-31T11:57:50.917Z,101297.88
2022-07-31T12:00:26.749Z,101291.78
2022-07-31T12:02:58.001Z,101296.56
2022-07-31T12:05:38.719Z,101297.75
2022-07-31T12:08:07.987Z,101297.00
2022-07-31T12:10:35.439Z,101285.03
2022-07-31T12:13:02.381Z,101287.59
2022-07-31T12:15:29.107Z,101293.75
2022-07-31T12:18:04.081Z,101286.63
2022-07-31T12:20:36.499Z,101282.75
2022-07-31T12:23:05.743Z,101284.97
2022-07-31T12:25:43.327Z,101288.19
2022-07-31T12:28:13.267Z,101286.44
2022-07-31T12:30:40.716Z,101283.56
2022-07-31T12:33:09.515Z,101277.78
2022-07-31T12:35:55.385Z,101278.09
2022-07-31T12:38:40.841Z,101274.16
2022-07-31T12:41:12.984Z,101277.38
2022-07-31T12:43:50.410Z,101285.69
2022-07-31T12:46:19.191Z,101268.47
2022-07-31T12:48:46.363Z,101262.50
2022-07-31T12:51:13.378Z,101257.16
2022-07-31T12:53:40.071Z,101276.09
2022-07-31T12:56:11.785Z,101258.00
2022-07-31T12:58:38.441Z,101260.38
2022-07-31T13:01:05.052Z,101253.53
2022-07-31T13:03:38.815Z,101256.25
2022-07-31T13:06:14.236Z,101241.97
2022-07-31T13:08:43.902Z,101247.97
2022-07-31T13:11:11.108Z,101233.44
2022-07-31T13:13:37.752Z,101243.25
2022-07-31T13:16:04.522Z,101246.84
2022-07-31T13:18:32.561Z,101244.66
2022-07-31T13:20:59.244Z,101239.69
2022-07-31T13:23:25.914Z,101242.44
2022-07-31T13:25:54.915Z,101238.22
2022-07-31T13:28:21.544Z,101240.16
2022-07-31T13:30:50.978Z,101237.09
2022-07-31T13:33:21.397Z,101241.75
2022-07-31T13:35:48.012Z,101242.28
2022-07-31T13:38:17.603Z,101238.84
2022-07-31T13:41:02.720Z,101243.47
2022-07-31T13:43:29.344Z,101239.38
2022-07-31T13:45:55.987Z,101244.81
2022-07-31T13:48:22.583Z,101243.78
2022-07-31T13:50:49.199Z,101239.84
2022-07-31T13:53:15.783Z,101246.34
2022-07-31T13:55:45.110Z,101231.72
2022-07-31T13:58:15.668Z,101237.34
2022-07-31T14:00:42.308Z,101233.09
2022-07-31T14:03:08.980Z,101239.41
2022-07-31T14:05:40.031Z,101233.59
2022-07-31T14:08:33.216Z,101230.22
2022-07-31T14:10:54.059Z,101228.91
2022-07-31T14:13:20.700Z,101234.69
2022-07-31T14:15:47.862Z,101229.75
2022-07-31T14:18:14.836Z,101228.22
2022-07-31T14:20:41.678Z,101230.94
2022-07-31T14:23:08.385Z,101233.69
2022-07-31T14:25:39.681Z,101229.06
2022-07-31T14:28:08.059Z,101229.38
2022-07-31T14:30:35.159Z,101228.50
2022-07-31T14:33:01.916Z,101233.66
2022-07-31T14:35:28.580Z,101233.81
2022-07-31T14:37:55.213Z,101234.53
2022-07-31T14:40:22.992Z,101227.34
2022-07-31T14:42:49.640Z,101233.66
2022-07-31T14:45:16.263Z,101228.22
2022-07-31T14:47:45.199Z,101240.81
2022-07-31T14:50:16.137Z,101236.41
2022-07-31T14:52:46.065Z,101238.81
2022-07-31T14:55:12.722Z,101236.56
2022-07-31T14:57:39.385Z,101234.00
2022-07-31T15:00:13.509Z,101232.47
2022-07-31T15:02:42.414Z,101231.06
2022-07-31T15:06:38.713Z,101231.22
2022-07-31T15:07:56.356Z,101233.13
2022-07-31T15:10:22.981Z,101230.22
2022-07-31T15:12:50.875Z,101223.03
2022-07-31T15:15:17.525Z,101222.69
2022-07-31T15:17:44.151Z,101217.91
2022-07-31T15:20:11.196Z,101212.78
2022-07-31T15:22:37.867Z,101222.53
2022-07-31T15:25:04.825Z,101225.59
2022-07-31T15:27:31.436Z,101222.53
2022-07-31T15:30:04.208Z,101222.34
2022-07-31T15:32:38.858Z,101216.72
2022-07-31T15:35:07.497Z,101215.47
2022-07-31T15:37:36.005Z,101220.44
2022-07-31T15:40:05.220Z,101214.41
2022-07-31T15:42:32.658Z,101217.13
2022-07-31T15:44:59.314Z,101220.03
2022-07-31T15:47:25.960Z,101226.03
2022-07-31T15:49:52.584Z,101219.53
2022-07-31T15:52:19.788Z,101209.66
2022-07-31T15:54:47.068Z,101212.22
2022-07-31T15:57:14.605Z,101210.69
2022-07-31T15:59:41.872Z,101209.34
2022-07-31T16:02:08.612Z,101207.84
2022-07-31T16:04:36.838Z,101207.28
2022-07-31T16:08:29.715Z,101204.03
2022-07-31T16:10:15.265Z,101206.06
2022-07-31T16:12:46.892Z,101211.00
2022-07-31T16:15:15.027Z,101199.56
2022-07-31T16:17:43.223Z,101200.75
2022-07-31T16:20:20.885Z,101208.41
2022-07-31T16:22:55.619Z,101198.31
2022-07-31T16:25:23.173Z,101198.31
2022-07-31T16:27:49.848Z,101188.75
2022-07-31T16:30:16.647Z,101200.00
2022-07-31T16:32:43.560Z,101198.63
2022-07-31T16:35:12.507Z,101194.59
2022-07-31T16:37:51.424Z,101191.81
2022-07-31T16:40:31.083Z,101191.72
2022-07-31T16:43:47.276Z,101184.44
2022-07-31T16:45:50.428Z,101188.75
2022-07-31T16:48:17.611Z,101192.94
2022-07-31T16:50:44.323Z,101185.47
2022-07-31T16:53:34.637Z,101189.09
2022-07-31T16:56:00.929Z,101192.53
2022-07-31T16:58:28.973Z,101187.28
2022-07-31T17:00:55.822Z,101190.38
2022-07-31T17:03:59.412Z,101187.50
2022-07-31T17:06:10.514Z,101190.03
2022-07-31T17:08:38.374Z,101185.00
2022-07-31T17:11:05.695Z,101185.50
2022-07-31T17:13:32.680Z,101188.06
2022-07-31T17:15:59.413Z,101189.41
2022-07-31T17:18:26.615Z,101186.25
2022-07-31T17:20:56.126Z,101181.22
2022-07-31T17:23:43.424Z,101184.09
2022-07-31T17:26:20.759Z,101173.53
2022-07-31T17:28:48.601Z,101179.44
2022-07-31T17:31:15.232Z,101187.25
2022-07-31T17:33:55.852Z,101187.91
2022-07-31T17:36:28.119Z,101186.00
2022-07-31T17:38:54.825Z,101179.16
2022-07-31T17:41:25.564Z,101186.16
2022-07-31T17:43:55.984Z,101192.91
2022-07-31T17:46:35.007Z,101187.13
2022-07-31T17:49:11.661Z,101184.91
2022-07-31T17:51:59.527Z,101188.91
2022-07-31T17:54:32.782Z,101188.22
2022-07-31T17:57:00.019Z,101182.16
2022-07-31T17:59:27.517Z,101183.22
2022-07-31T18:02:00.194Z,101189.72
2022-07-31T18:04:33.855Z,101181.25
2022-07-31T18:07:02.171Z,101177.06
2022-07-31T18:09:29.146Z,101188.31
2022-07-31T18:11:57.411Z,101183.63
2022-07-31T18:14:25.050Z,101187.25
2022-07-31T18:16:52.304Z,101178.44
2022-07-31T18:19:19.169Z,101188.56
2022-07-31T18:21:45.769Z,101184.81
2022-07-31T18:24:12.387Z,101192.56
2022-07-31T18:26:39.303Z,101182.38
2022-07-31T18:29:05.945Z,101190.00
2022-07-31T18:31:35.128Z,101185.06
2022-07-31T18:34:06.338Z,101189.88
2022-07-31T18:36:33.808Z,101196.16
2022-07-31T18:39:01.399Z,101201.34
2022-07-31T18:41:28.098Z,101210.69
2022-07-31T18:43:55.129Z,101202.56
2022-07-31T18:46:23.812Z,101205.28
2022-07-31T18:48:55.578Z,101198.13
2022-07-31T18:51:23.420Z,101203.78
2022-07-31T18:53:50.460Z,101204.78
2022-07-31T18:56:17.313Z,101202.06
2022-07-31T18:58:44.145Z,101208.56
2022-07-31T19:01:10.923Z,101203.44
2022-07-31T19:03:37.684Z,101203.06
2022-07-31T19:06:04.690Z,101195.31
2022-07-31T19:08:31.496Z,101205.41
2022-07-31T19:10:58.564Z,101200.25
2022-07-31T19:13:25.369Z,101202.31
2022-07-31T19:15:53.175Z,101198.88
2022-07-31T19:18:28.050Z,101204.28
2022-07-31T19:20:56.241Z,101203.66
2022-07-31T19:23:25.330Z,101205.97
2022-07-31T19:26:02.544Z,101204.84
2022-07-31T19:28:32.131Z,101203.84
2022-07-31T19:30:59.510Z,101203.56
2022-07-31T19:33:26.350Z,101208.81
2022-07-31T19:36:00.402Z,101209.19
2022-07-31T19:38:29.010Z,101205.84
2022-07-31T19:40:55.738Z,101209.78
2022-07-31T19:43:22.578Z,101209.88
2022-07-31T19:46:09.487Z,101204.69
2022-07-31T19:48:36.910Z,101206.06
2022-07-31T19:51:04.852Z,101195.09
2022-07-31T19:53:31.556Z,101199.22
2022-07-31T19:55:58.397Z,101205.84
2022-07-31T19:58:25.068Z,101203.44
2022-07-31T20:00:51.819Z,101196.56
2022-07-31T20:03:18.835Z,101205.09
2022-07-31T20:05:45.625Z,101202.97
2022-07-31T20:08:12.319Z,101193.50
2022-07-31T20:10:39.069Z,101196.91
2022-07-31T20:13:05.774Z,101198.34
2022-07-31T20:15:51.992Z,101199.75
2022-07-31T20:18:28.582Z,101198.44
2022-07-31T20:20:57.390Z,101193.53
2022-07-31T20:23:25.289Z,101201.94
2022-07-31T20:25:52.224Z,101205.75
2022-07-31T20:28:18.937Z,101211.34
2022-07-31T20:30:45.554Z,101204.22
2022-07-31T20:33:13.210Z,101193.00
2022-07-31T20:35:49.193Z,101189.13
2022-07-31T20:38:23.678Z,101190.31
2022-07-31T20:40:55.307Z,101181.81
2022-07-31T20:43:24.675Z,101181.59
2022-07-31T20:45:52.072Z,101180.31
2022-07-31T20:48:21.105Z,101170.94
2022-07-31T20:50:48.444Z,101178.69
2022-07-31T20:53:19.526Z,101169.31
2022-07-31T20:55:49.439Z,101171.56
2022-07-31T20:58:18.026Z,101163.59
2022-07-31T21:00:45.533Z,101171.03
2022-07-31T21:03:12.324Z,101176.97
2022-07-31T21:05:39.032Z,101161.97
2022-07-31T21:08:05.926Z,101168.13
2022-07-31T21:10:32.616Z,101172.72
2022-07-31T21:12:59.252Z,101172.94
2022-07-31T21:15:41.627Z,101168.91
2022-07-31T21:18:17.463Z,101167.16
2022-07-31T21:20:51.465Z,101167.88
2022-07-31T21:23:24.146Z,101163.81
2022-07-31T21:25:52.386Z,101164.22
2022-07-31T21:28:19.532Z,101164.72
2022-07-31T21:30:49.689Z,101161.59
2022-07-31T21:33:18.388Z,101162.63
2022-07-31T21:35:46.195Z,101168.22
2022-07-31T21:38:15.765Z,101162.06
2022-07-31T21:40:43.892Z,101161.53
2022-07-31T21:43:11.802Z,101160.09
2022-07-31T21:45:55.658Z,101165.38
2022-07-31T21:48:26.469Z,101158.06
2022-07-31T21:50:53.954Z,101157.31
2022-07-31T21:53:21.180Z,101159.16
2022-07-31T21:55:48.327Z,101157.31
2022-07-31T21:58:15.214Z,101153.84
2022-07-31T22:00:42.214Z,101160.22
2022-07-31T22:03:09.111Z,101155.03
2022-07-31T22:05:54.426Z,101159.81
2022-07-31T22:08:21.304Z,101156.47
2022-07-31T22:10:50.469Z,101152.19
2022-07-31T22:13:17.280Z,101154.88
2022-07-31T22:15:50.425Z,101153.91
2022-07-31T22:18:27.832Z,101146.69
2022-07-31T22:20:54.487Z,101155.81
2022-07-31T22:23:21.422Z,101147.75
2022-07-31T22:25:51.644Z,101148.53
2022-07-31T22:28:20.529Z,101143.91
2022-07-31T22:30:48.015Z,101145.63
2022-07-31T22:33:15.093Z,101150.25
2022-07-31T22:35:41.864Z,101145.25
2022-07-31T22:38:11.169Z,101144.47
2022-07-31T22:40:38.096Z,101144.09
2022-07-31T22:44:10.483Z,101140.75
2022-07-31T22:45:53.475Z,101147.47
2022-07-31T22:48:21.879Z,101132.63
2022-07-31T22:50:49.208Z,101139.06
2022-07-31T22:53:16.163Z,101146.44
2022-07-31T22:55:42.822Z,101143.28
2022-07-31T22:58:11.467Z,101149.03
2022-07-31T23:00:38.448Z,101142.03
2022-07-31T23:03:05.163Z,101140.97
2022-07-31T23:06:13.041Z,101151.66
2022-07-31T23:08:18.538Z,101147.41
2022-07-31T23:10:45.134Z,101140.50
2022-07-31T23:13:11.723Z,101138.00
2022-07-31T23:15:38.378Z,101131.59
2022-07-31T23:18:05.063Z,101132.75
2022-07-31T23:20:31.825Z,101129.47
2022-07-31T23:22:58.499Z,101128.81
2022-07-31T23:25:25.093Z,101120.09
2022-07-31T23:27:51.684Z,101130.16
2022-07-31T23:30:18.316Z,101129.59
2022-07-31T23:32:44.901Z,101129.00
2022-07-31T23:35:11.586Z,101130.34
2022-07-31T23:37:38.233Z,101134.16
2022-07-31T23:40:05.546Z,101120.94
2022-07-31T23:42:37.825Z,101127.16
2022-07-31T23:45:11.481Z,101124.56
2022-07-31T23:47:45.811Z,101117.44
2022-07-31T23:50:13.814Z,101128.00
2022-07-31T23:52:40.472Z,101122.56
2022-07-31T23:55:07.373Z,101111.72
2022-07-31T23:57:34.546Z,101117.03
